Terminal Aerodrome Forecast
Issued by NWS

Home | Current Version | Previous Version | Graphics & Text | Print | Product List | Glossary Off
Versions: 1 2 3 4 5 6 7 8 9 10 11 12 13 14 15 16 17 18

000
FTUS43 KGRB 021131
TAFMTW
TAF
KMTW 021131Z 0212/0312 24003KT 4SM BR FEW004 SCT140 BKN200
      TEMPO 0212/0213 2SM BR SCT004 BKN140
     FM021400 29006KT P6SM SCT020 BKN120
     FM022200 09003KT P6SM SCT030 BKN100
      TEMPO 0222/0302 5SM -SHRA BR BKN030
     FM030200 VRB03KT 5SM -SHRA BR BKN020
      TEMPO 0302/0306 4SM -TSRA BKN020CB=

USA.gov is the U.S. government's official web portal to all federal, state and local government web resources and services.